createdAt,value
2023-01-07T00:02:11.252Z,10.40
2023-01-07T00:04:42.066Z,10.30
2023-01-07T00:07:11.933Z,10.20
2023-01-07T00:09:40.774Z,10.20
2023-01-07T00:12:07.465Z,10.20
2023-01-07T00:14:34.073Z,10.10
2023-01-07T00:17:00.610Z,10.10
2023-01-07T00:19:27.193Z,10.00
2023-01-07T00:21:54.811Z,10.00
2023-01-07T00:24:21.276Z,10.00
2023-01-07T00:26:47.808Z,9.90
2023-01-07T00:29:14.406Z,10.00
2023-01-07T00:31:41.074Z,10.00
2023-01-07T00:34:10.850Z,10.10
2023-01-07T00:36:44.957Z,10.10
2023-01-07T00:39:13.297Z,10.20
2023-01-07T00:41:40.272Z,10.20
2023-01-07T00:46:39.409Z,10.40
2023-01-07T00:49:08.525Z,10.40
2023-01-07T00:51:40.765Z,10.40
2023-01-07T00:54:09.661Z,10.30
2023-01-07T00:56:40.073Z,10.30
2023-01-07T00:59:06.677Z,10.30
2023-01-07T01:01:37.386Z,10.20
2023-01-07T01:04:12.543Z,10.10
2023-01-07T01:06:41.987Z,10.00
2023-01-07T01:09:11.399Z,10.00
2023-01-07T01:11:40.524Z,9.90
2023-01-07T01:16:41.821Z,9.80
2023-01-07T01:19:12.914Z,9.70
2023-01-07T01:21:44.633Z,9.60
2023-01-07T01:24:23.885Z,9.50
2023-01-07T01:27:03.577Z,9.50
2023-01-07T01:29:30.291Z,9.40
2023-01-07T01:31:56.991Z,9.40
2023-01-07T01:34:23.599Z,9.50
2023-01-07T01:36:50.250Z,9.50
2023-01-07T01:39:27.294Z,9.50
2023-01-07T01:41:54.079Z,9.60
2023-01-07T01:44:21.420Z,9.60
2023-01-07T01:46:48.422Z,9.60
2023-01-07T01:49:26.697Z,9.60
2023-01-07T01:52:13.486Z,9.60
2023-01-07T01:54:41.352Z,9.60
2023-01-07T01:57:08.444Z,9.60
2023-01-07T01:59:37.755Z,9.50
2023-01-07T02:02:04.616Z,9.60
2023-01-07T02:04:31.564Z,9.50
2023-01-07T02:07:10.173Z,9.50
2023-01-07T02:09:36.784Z,9.50
2023-01-07T02:12:17.610Z,9.50
2023-01-07T02:14:59.038Z,9.50
2023-01-07T02:17:28.715Z,9.50
2023-01-07T02:20:17.325Z,9.50
2023-01-07T02:23:19.159Z,9.50
2023-01-07T02:26:04.363Z,9.50
2023-01-07T02:28:49.855Z,9.50
2023-01-07T02:31:48.667Z,9.60
2023-01-07T02:34:25.501Z,9.60
2023-01-07T02:37:01.868Z,9.70
2023-01-07T02:39:28.392Z,9.70
2023-01-07T02:41:58.797Z,9.70
2023-01-07T02:47:16.938Z,9.80
2023-01-07T02:49:45.956Z,9.80
2023-01-07T02:52:41.686Z,9.80
2023-01-07T02:55:10.931Z,9.90
2023-01-07T02:57:37.517Z,9.90
2023-01-07T03:00:11.652Z,9.90
2023-01-07T03:02:48.465Z,10.00
2023-01-07T03:05:20.332Z,10.10
2023-01-07T03:07:52.159Z,10.10
2023-01-07T03:10:29.690Z,10.10
2023-01-07T03:13:03.450Z,10.10
2023-01-07T03:15:42.765Z,10.00
2023-01-07T03:18:20.235Z,10.00
2023-01-07T03:20:51.314Z,10.00
2023-01-07T03:23:22.041Z,9.90
2023-01-07T03:25:57.076Z,9.90
2023-01-07T03:28:35.535Z,9.90
2023-01-07T03:31:04.589Z,9.90
2023-01-07T03:33:35.067Z,9.80
2023-01-07T03:36:09.109Z,9.90
2023-01-07T03:38:36.582Z,9.90
2023-01-07T03:41:04.417Z,9.90
2023-01-07T03:43:33.412Z,9.90
2023-01-07T03:46:00.187Z,10.00
2023-01-07T03:48:26.735Z,10.00
2023-01-07T03:50:53.198Z,9.90
2023-01-07T03:53:19.771Z,9.90
2023-01-07T03:55:46.273Z,9.90
2023-01-07T03:58:12.834Z,9.90
2023-01-07T04:00:39.342Z,9.90
2023-01-07T04:03:05.960Z,9.90
2023-01-07T04:05:32.494Z,9.90
2023-01-07T04:08:01.665Z,10.00
2023-01-07T04:10:34.455Z,9.90
2023-01-07T04:13:09.516Z,9.90
2023-01-07T04:15:44.817Z,10.00
2023-01-07T04:18:11.512Z,10.00
2023-01-07T04:20:41.043Z,10.10
2023-01-07T04:23:07.694Z,10.00
2023-01-07T04:25:38.106Z,10.10
2023-01-07T04:28:04.987Z,10.10
2023-01-07T04:30:33.284Z,10.10
2023-01-07T04:33:05.735Z,10.10
2023-01-07T04:35:51.514Z,10.10
2023-01-07T04:38:20.585Z,10.00
2023-01-07T04:40:47.646Z,10.00
2023-01-07T04:43:16.653Z,10.00
2023-01-07T04:45:43.292Z,9.90
2023-01-07T04:48:21.849Z,9.90
2023-01-07T04:50:49.985Z,9.90
2023-01-07T04:53:21.708Z,9.90
2023-01-07T04:55:52.369Z,9.90
2023-01-07T04:58:19.040Z,9.90
2023-01-07T05:00:58.464Z,9.90
2023-01-07T05:03:30.437Z,9.90
2023-01-07T05:05:59.209Z,9.90
2023-01-07T05:08:28.114Z,9.80
2023-01-07T05:10:56.848Z,9.90
2023-01-07T05:13:23.927Z,9.90
2023-01-07T05:15:52.812Z,9.90
2023-01-07T05:18:29.720Z,9.90
2023-01-07T05:20:59.635Z,9.90
2023-01-07T05:23:28.337Z,9.90
2023-01-07T05:25:54.931Z,9.90
2023-01-07T05:28:24.535Z,9.90
2023-01-07T05:30:51.137Z,9.90
2023-01-07T05:33:17.829Z,9.90
2023-01-07T05:35:47.114Z,9.90
2023-01-07T05:38:16.415Z,9.80
2023-01-07T05:40:43.135Z,9.90
2023-01-07T05:43:12.034Z,9.80
2023-01-07T05:45:38.582Z,9.80
2023-01-07T05:48:05.378Z,9.90
2023-01-07T05:50:31.935Z,9.80
2023-01-07T05:52:58.484Z,9.90
2023-01-07T05:55:24.987Z,9.90
2023-01-07T05:57:51.575Z,9.90
2023-01-07T06:00:18.591Z,9.90
2023-01-07T06:02:45.228Z,9.90
2023-01-07T06:05:11.788Z,9.80
2023-01-07T06:07:38.406Z,9.80
2023-01-07T06:10:05.140Z,9.80
2023-01-07T06:12:31.692Z,9.80
2023-01-07T06:14:58.201Z,9.90
2023-01-07T06:17:24.788Z,9.80
2023-01-07T06:19:51.384Z,9.80
2023-01-07T06:22:17.912Z,9.80
2023-01-07T06:24:44.438Z,9.80
2023-01-07T06:27:11.024Z,9.80
2023-01-07T06:29:37.588Z,9.80
2023-01-07T06:37:26.818Z,9.80
2023-01-07T06:39:58.953Z,9.80
2023-01-07T06:42:28.532Z,9.70
2023-01-07T06:44:55.293Z,9.80
2023-01-07T06:47:24.338Z,9.80
2023-01-07T06:49:51.533Z,9.80
2023-01-07T06:52:23.226Z,9.90
2023-01-07T06:54:49.840Z,9.90
2023-01-07T06:57:16.528Z,9.90
2023-01-07T06:59:46.097Z,9.80
2023-01-07T07:02:25.128Z,9.90
2023-01-07T07:04:52.124Z,9.90
2023-01-07T07:07:18.791Z,9.90
2023-01-07T07:09:47.745Z,9.80
2023-01-07T07:12:17.573Z,9.80
2023-01-07T07:14:47.913Z,9.80
2023-01-07T07:17:19.787Z,9.80
2023-01-07T07:19:53.465Z,9.80
2023-01-07T07:22:25.296Z,9.80
2023-01-07T07:24:56.412Z,9.80
2023-01-07T07:27:23.648Z,9.80
2023-01-07T07:29:50.283Z,9.80
2023-01-07T07:32:19.379Z,9.80
2023-01-07T07:34:49.404Z,9.80
2023-01-07T07:37:18.473Z,9.80
2023-01-07T07:39:48.394Z,9.80
2023-01-07T07:42:15.028Z,9.80
2023-01-07T07:44:41.661Z,9.80
2023-01-07T07:47:18.235Z,9.70
2023-01-07T07:49:44.857Z,9.70
2023-01-07T07:52:13.740Z,9.70
2023-01-07T07:54:45.842Z,9.80
2023-01-07T07:57:18.068Z,9.80
2023-01-07T07:59:47.185Z,9.80
2023-01-07T08:02:19.213Z,9.80
2023-01-07T08:04:46.081Z,9.80
2023-01-07T08:07:13.094Z,9.80
2023-01-07T08:09:41.659Z,9.80
2023-01-07T08:12:11.059Z,9.80
2023-01-07T08:14:42.659Z,9.80
2023-01-07T08:17:14.528Z,9.80
2023-01-07T08:19:45.795Z,9.80
2023-01-07T08:22:18.415Z,9.90
2023-01-07T08:24:46.551Z,9.90
2023-01-07T08:27:13.186Z,9.90
2023-01-07T08:29:45.257Z,10.00
2023-01-07T08:32:11.854Z,9.90
2023-01-07T08:34:41.350Z,10.00
2023-01-07T08:37:10.291Z,10.00
2023-01-07T08:39:58.921Z,10.00
2023-01-07T08:42:26.827Z,10.00
2023-01-07T08:44:53.433Z,10.00
2023-01-07T08:47:25.731Z,10.00
2023-01-07T08:49:52.529Z,10.00
2023-01-07T08:52:21.530Z,10.00
2023-01-07T08:54:54.552Z,10.00
2023-01-07T08:57:23.206Z,10.00
2023-01-07T08:59:52.184Z,10.10
2023-01-07T09:02:19.472Z,10.10
2023-01-07T09:05:02.782Z,10.10
2023-01-07T09:07:34.513Z,10.10
2023-01-07T09:10:11.236Z,10.10
2023-01-07T09:12:41.151Z,10.10
2023-01-07T09:15:08.334Z,10.20
2023-01-07T09:17:44.656Z,10.20
2023-01-07T09:20:11.250Z,10.20
2023-01-07T09:22:38.023Z,10.30
2023-01-07T09:25:16.196Z,10.30
2023-01-07T09:27:48.626Z,10.30
2023-01-07T09:30:17.781Z,11.20
2023-01-07T09:32:44.462Z,12.30
2023-01-07T09:35:11.681Z,13.30
2023-01-07T09:37:38.617Z,13.80
2023-01-07T09:40:08.181Z,13.50
2023-01-07T09:42:47.848Z,13.60
2023-01-07T09:45:16.524Z,14.10
2023-01-07T09:47:47.734Z,14.70
2023-01-07T09:50:27.109Z,14.80
2023-01-07T09:52:58.873Z,14.20
2023-01-07T09:55:36.467Z,13.00
2023-01-07T09:58:03.363Z,12.10
2023-01-07T10:00:31.325Z,11.60
2023-01-07T10:03:10.319Z,11.40
2023-01-07T10:05:39.356Z,11.50
2023-01-07T10:08:29.466Z,11.40
2023-01-07T10:10:58.541Z,11.90
2023-01-07T10:13:45.183Z,12.70
2023-01-07T10:16:35.917Z,13.30
2023-01-07T10:19:03.746Z,13.40
2023-01-07T10:21:51.384Z,13.10
2023-01-07T10:24:28.575Z,12.50
2023-01-07T10:26:57.903Z,12.10
2023-01-07T10:29:31.541Z,12.20
2023-01-07T10:31:59.917Z,12.80
2023-01-07T10:34:30.425Z,12.70
2023-01-07T10:37:03.172Z,12.50
2023-01-07T10:39:41.833Z,12.90
2023-01-07T10:42:27.088Z,12.50
2023-01-07T10:44:56.662Z,12.00
2023-01-07T10:47:27.384Z,11.70
2023-01-07T10:50:09.817Z,11.50
2023-01-07T10:52:39.284Z,11.50
2023-01-07T10:55:15.523Z,11.40
2023-01-07T10:57:42.725Z,11.30
2023-01-07T11:00:17.296Z,11.30
2023-01-07T11:02:47.394Z,11.20
2023-01-07T11:05:14.948Z,11.10
2023-01-07T11:07:45.896Z,11.10
2023-01-07T11:10:18.453Z,11.10
2023-01-07T11:12:49.931Z,11.10
2023-01-07T11:15:35.306Z,11.20
2023-01-07T11:18:15.824Z,11.10
2023-01-07T11:20:45.280Z,11.20
2023-01-07T11:23:20.488Z,11.20
2023-01-07T11:25:47.217Z,11.30
2023-01-07T11:28:21.743Z,11.30
2023-01-07T11:30:57.452Z,11.20
2023-01-07T11:34:03.009Z,11.30
2023-01-07T11:36:20.008Z,11.20
2023-01-07T11:38:51.515Z,11.20
2023-01-07T11:41:28.321Z,11.30
2023-01-07T11:43:55.068Z,11.30
2023-01-07T11:46:27.045Z,11.30
2023-01-07T11:48:57.702Z,11.30
2023-01-07T11:51:29.093Z,11.30
2023-01-07T11:54:08.778Z,11.30
2023-01-07T11:56:35.517Z,11.40
2023-01-07T11:59:17.987Z,11.40
2023-01-07T12:01:49.298Z,11.50
2023-01-07T12:04:23.247Z,11.50
2023-01-07T12:06:51.360Z,11.60
2023-01-07T12:09:25.624Z,11.60
2023-01-07T12:11:56.151Z,11.60
2023-01-07T12:14:25.404Z,11.70
2023-01-07T12:16:52.811Z,11.70
2023-01-07T12:19:31.541Z,11.60
2023-01-07T12:22:04.139Z,11.70
2023-01-07T12:24:45.820Z,11.70
2023-01-07T12:27:25.821Z,11.70
2023-01-07T12:30:04.013Z,11.60
2023-01-07T12:32:33.689Z,11.70
2023-01-07T12:35:14.356Z,11.70
2023-01-07T12:37:48.495Z,11.70
2023-01-07T12:40:20.463Z,11.70
2023-01-07T12:42:52.008Z,11.60
2023-01-07T12:45:33.609Z,11.60
2023-01-07T12:48:02.903Z,11.60
2023-01-07T12:50:42.379Z,11.70
2023-01-07T12:53:14.873Z,11.60
2023-01-07T12:55:46.695Z,11.70
2023-01-07T12:58:21.429Z,11.70
2023-01-07T13:01:10.862Z,11.70
2023-01-07T13:03:44.324Z,11.70
2023-01-07T13:06:29.513Z,11.70
2023-01-07T13:09:07.370Z,11.80
2023-01-07T13:12:03.151Z,11.80
2023-01-07T13:14:36.936Z,11.80
2023-01-07T13:17:14.809Z,11.80
2023-01-07T13:19:52.829Z,11.80
2023-01-07T13:22:23.861Z,11.80
2023-01-07T13:25:12.498Z,11.80
2023-01-07T13:27:47.057Z,11.80
2023-01-07T13:30:27.417Z,11.70
2023-01-07T13:32:56.920Z,11.70
2023-01-07T13:35:43.979Z,11.70
2023-01-07T13:38:23.929Z,11.70
2023-01-07T13:41:13.453Z,11.80
2023-01-07T13:43:57.533Z,11.70
2023-01-07T13:46:32.769Z,11.70
2023-01-07T13:49:01.809Z,11.70
2023-01-07T13:51:30.812Z,11.80
2023-01-07T13:54:12.984Z,11.80
2023-01-07T13:56:42.934Z,11.80
2023-01-07T13:59:28.674Z,11.80
2023-01-07T14:02:19.727Z,11.80
2023-01-07T14:04:50.727Z,12.00
2023-01-07T14:07:21.685Z,12.10
2023-01-07T14:09:50.978Z,12.00
2023-01-07T14:12:25.365Z,12.00
2023-01-07T14:15:08.435Z,11.90
2023-01-07T14:17:53.927Z,11.90
2023-01-07T14:20:20.464Z,11.70
2023-01-07T14:22:50.028Z,11.80
2023-01-07T14:25:31.327Z,11.90
2023-01-07T14:27:57.897Z,11.90
2023-01-07T14:30:44.691Z,11.90
2023-01-07T14:33:33.698Z,11.80
2023-01-07T14:36:01.502Z,11.60
2023-01-07T14:38:40.053Z,11.50
2023-01-07T14:41:09.735Z,11.50
2023-01-07T14:43:46.806Z,11.50
2023-01-07T14:46:22.627Z,11.60
2023-01-07T14:48:58.121Z,11.60
2023-01-07T14:51:46.571Z,11.50
2023-01-07T14:54:18.865Z,11.30
2023-01-07T14:57:17.326Z,11.20
2023-01-07T15:00:03.443Z,11.10
2023-01-07T15:02:35.127Z,11.00
2023-01-07T15:05:23.125Z,10.90
2023-01-07T15:08:15.917Z,10.90
2023-01-07T15:11:05.295Z,10.90
2023-01-07T15:13:57.226Z,10.80
2023-01-07T15:16:24.113Z,10.70
2023-01-07T15:18:51.864Z,10.70
2023-01-07T15:21:27.404Z,10.70
2023-01-07T15:23:54.031Z,10.60
2023-01-07T15:26:43.686Z,10.60
2023-01-07T15:29:22.105Z,10.60
2023-01-07T15:32:14.080Z,10.50
2023-01-07T15:34:40.910Z,10.50
2023-01-07T15:37:11.699Z,10.40
2023-01-07T15:39:41.331Z,10.40
2023-01-07T15:42:19.871Z,10.30
2023-01-07T15:44:51.472Z,10.40
2023-01-07T15:47:41.879Z,10.30
2023-01-07T15:50:24.174Z,10.30
2023-01-07T15:52:53.919Z,10.30
2023-01-07T15:55:28.311Z,10.30
2023-01-07T15:57:58.505Z,10.20
2023-01-07T16:00:28.312Z,10.20
2023-01-07T16:02:57.279Z,10.20
2023-01-07T16:05:27.999Z,10.20
2023-01-07T16:08:02.815Z,10.20
2023-01-07T16:10:32.400Z,10.20
2023-01-07T16:13:01.220Z,10.20
2023-01-07T16:15:41.257Z,10.10
2023-01-07T16:18:08.818Z,10.10
2023-01-07T16:20:45.322Z,10.10
2023-01-07T16:23:25.281Z,10.10
2023-01-07T16:26:03.723Z,10.10
2023-01-07T16:28:33.244Z,10.00
2023-01-07T16:31:10.208Z,10.00
2023-01-07T16:33:42.360Z,10.00
2023-01-07T16:36:21.763Z,10.00
2023-01-07T16:38:52.401Z,10.00
2023-01-07T16:41:20.356Z,9.90
2023-01-07T16:44:10.066Z,9.90
2023-01-07T16:46:48.466Z,9.80
2023-01-07T16:49:30.800Z,9.80
2023-01-07T16:52:07.751Z,9.80
2023-01-07T16:54:39.457Z,9.90
2023-01-07T16:57:17.732Z,9.90
2023-01-07T16:59:55.518Z,9.90
2023-01-07T17:02:46.255Z,9.80
2023-01-07T17:05:21.172Z,9.90
2023-01-07T17:07:50.813Z,9.90
2023-01-07T17:10:30.746Z,9.90
2023-01-07T17:13:02.962Z,9.90
2023-01-07T17:15:39.795Z,9.90
2023-01-07T17:18:14.940Z,9.90
2023-01-07T17:20:59.591Z,9.80
2023-01-07T17:23:30.002Z,9.90
2023-01-07T17:26:11.718Z,9.90
2023-01-07T17:29:09.839Z,9.90
2023-01-07T17:31:42.103Z,9.90
2023-01-07T17:34:12.088Z,9.90
2023-01-07T17:36:44.831Z,10.00
2023-01-07T17:39:13.903Z,9.90
2023-01-07T17:41:59.277Z,9.90
2023-01-07T17:44:26.769Z,9.90
2023-01-07T17:46:53.385Z,9.90
2023-01-07T17:49:22.940Z,9.80
2023-01-07T17:51:54.482Z,9.90
2023-01-07T17:54:28.788Z,9.90
2023-01-07T17:56:56.664Z,9.90
2023-01-07T17:59:24.658Z,9.90
2023-01-07T18:01:57.656Z,10.00
2023-01-07T18:04:27.447Z,10.00
2023-01-07T18:06:56.923Z,10.00
2023-01-07T18:09:25.776Z,10.00
2023-01-07T18:12:13.674Z,10.00
2023-01-07T18:14:41.785Z,10.00
2023-01-07T18:19:54.831Z,10.00
2023-01-07T18:22:22.071Z,10.10
2023-01-07T18:24:51.612Z,10.00
2023-01-07T18:27:22.586Z,10.10
2023-01-07T18:29:51.501Z,10.10
2023-01-07T18:32:18.108Z,10.10
2023-01-07T18:34:51.469Z,10.10
2023-01-07T18:37:20.671Z,10.00
2023-01-07T18:39:51.268Z,10.00
2023-01-07T18:42:20.050Z,10.00
2023-01-07T18:45:02.519Z,10.00
2023-01-07T18:47:35.483Z,10.00
2023-01-07T18:50:02.536Z,10.00
2023-01-07T18:52:30.959Z,10.00
2023-01-07T18:55:07.979Z,10.00
2023-01-07T18:57:37.162Z,10.00
2023-01-07T19:00:06.824Z,10.00
2023-01-07T19:02:39.113Z,10.00
2023-01-07T19:05:12.943Z,10.00
2023-01-07T19:07:42.441Z,10.00
2023-01-07T19:10:11.722Z,10.00
2023-01-07T19:12:41.339Z,10.00
2023-01-07T19:15:08.223Z,10.00
2023-01-07T19:20:21.639Z,10.00
2023-01-07T19:22:57.363Z,10.00
2023-01-07T19:25:27.800Z,10.00
2023-01-07T19:28:04.173Z,10.00
2023-01-07T19:30:33.820Z,10.00
2023-01-07T19:33:18.179Z,10.00
2023-01-07T19:35:51.167Z,10.00
2023-01-07T19:38:22.987Z,10.00
2023-01-07T19:40:53.022Z,10.00
2023-01-07T19:43:23.065Z,10.00
2023-01-07T19:45:58.245Z,10.10
2023-01-07T19:48:26.999Z,10.10
2023-01-07T19:51:00.236Z,10.40
2023-01-07T19:53:27.497Z,10.80
2023-01-07T19:55:54.552Z,11.00
2023-01-07T19:58:23.706Z,11.20
2023-01-07T20:00:50.428Z,11.20
2023-01-07T20:03:17.094Z,11.40
2023-01-07T20:05:43.786Z,11.50
2023-01-07T20:08:10.450Z,11.50
2023-01-07T20:10:41.872Z,11.50
2023-01-07T20:13:08.499Z,11.40
2023-01-07T20:15:35.162Z,11.50
2023-01-07T20:18:07.288Z,11.40
2023-01-07T20:20:38.004Z,11.40
2023-01-07T20:23:07.238Z,11.40
2023-01-07T20:25:35.887Z,11.40
2023-01-07T20:28:02.541Z,11.40
2023-01-07T20:30:29.217Z,11.40
2023-01-07T20:32:55.814Z,11.40
2023-01-07T20:35:27.841Z,11.40
2023-01-07T20:37:54.441Z,11.40
2023-01-07T20:40:21.087Z,11.40
2023-01-07T20:42:47.776Z,11.40
2023-01-07T20:45:14.560Z,11.40
2023-01-07T20:47:46.712Z,11.40
2023-01-07T20:50:15.379Z,11.30
2023-01-07T20:52:44.628Z,11.30
2023-01-07T20:55:14.172Z,11.30
2023-01-07T20:57:45.776Z,11.40
2023-01-07T21:00:12.771Z,11.30
2023-01-07T21:02:41.926Z,11.30
2023-01-07T21:05:11.098Z,11.30
2023-01-07T21:07:37.712Z,11.30
2023-01-07T21:10:07.459Z,11.30
2023-01-07T21:12:39.735Z,11.30
2023-01-07T21:15:13.552Z,11.30
2023-01-07T21:17:40.394Z,11.30
2023-01-07T21:20:10.591Z,11.20
2023-01-07T21:22:38.768Z,11.20
2023-01-07T21:25:05.934Z,11.20
2023-01-07T21:27:32.623Z,11.30
2023-01-07T21:30:06.008Z,11.30
2023-01-07T21:32:39.867Z,11.30
2023-01-07T21:35:08.450Z,11.30
2023-01-07T21:37:37.510Z,11.20
2023-01-07T21:40:04.664Z,11.30
2023-01-07T21:42:32.507Z,11.20
2023-01-07T21:45:01.654Z,11.20
2023-01-07T21:47:32.676Z,11.20
2023-01-07T21:49:59.528Z,11.20
2023-01-07T21:52:28.659Z,11.20
2023-01-07T21:54:58.551Z,11.20
2023-01-07T21:57:25.534Z,11.30
2023-01-07T21:59:52.195Z,11.30
2023-01-07T22:02:18.799Z,11.20
2023-01-07T22:04:50.450Z,11.20
2023-01-07T22:07:20.436Z,11.20
2023-01-07T22:09:55.032Z,11.20
2023-01-07T22:12:25.652Z,11.20
2023-01-07T22:14:57.905Z,11.20
2023-01-07T22:17:27.807Z,11.20
2023-01-07T22:19:54.516Z,11.20
2023-01-07T22:22:21.245Z,11.20
2023-01-07T22:24:47.934Z,11.20
2023-01-07T22:27:14.504Z,11.20
2023-01-07T22:29:41.783Z,11.20
2023-01-07T22:32:08.407Z,11.10
2023-01-07T22:34:35.055Z,11.10
2023-01-07T22:37:11.836Z,11.10
2023-01-07T22:39:47.763Z,11.00
2023-01-07T22:42:23.444Z,11.00
2023-01-07T22:44:51.924Z,11.00
2023-01-07T22:47:22.450Z,11.00
2023-01-07T22:49:49.842Z,11.00
2023-01-07T22:52:26.299Z,11.00
2023-01-07T22:54:54.596Z,11.00
2023-01-07T22:57:22.603Z,11.00
2023-01-07T22:59:49.246Z,11.00
2023-01-07T23:02:15.856Z,10.90
2023-01-07T23:04:42.478Z,10.90
2023-01-07T23:07:09.093Z,10.90
2023-01-07T23:09:36.927Z,10.90
2023-01-07T23:12:06.647Z,10.90
2023-01-07T23:14:33.284Z,10.90
2023-01-07T23:17:00.011Z,10.90
2023-01-07T23:19:31.933Z,10.90
2023-01-07T23:21:59.027Z,10.90
2023-01-07T23:24:25.688Z,10.90
2023-01-07T23:26:52.900Z,10.90
2023-01-07T23:29:25.077Z,11.00
2023-01-07T23:31:54.921Z,10.90
2023-01-07T23:34:21.637Z,10.90
2023-01-07T23:36:48.292Z,10.90
2023-01-07T23:39:15.020Z,11.00
2023-01-07T23:41:41.677Z,11.00
2023-01-07T23:44:13.819Z,11.00
2023-01-07T23:46:41.424Z,11.00
2023-01-07T23:49:08.085Z,11.00
2023-01-07T23:51:34.956Z,11.00
2023-01-07T23:54:03.946Z,11.00
2023-01-07T23:56:33.442Z,11.00
2023-01-07T23:59:02.747Z,11.00
